createdAt,value
2022-09-14T00:19:36.211Z,13.13
2022-09-14T00:39:36.099Z,13.38
2022-09-14T00:59:36.056Z,12.87
2022-09-14T01:19:35.991Z,12.63
2022-09-14T01:39:36.039Z,12.8
2022-09-14T01:59:35.979Z,13.16
2022-09-14T02:59:35.786Z,12.99
2022-09-14T03:19:35.751Z,12.71
2022-09-14T03:59:37.631Z,12.3
2022-09-14T04:19:35.667Z,12.23
2022-09-14T04:39:35.584Z,12.35
2022-09-14T04:59:35.639Z,12.22
2022-09-14T05:19:35.650Z,11.86
2022-09-14T05:39:35.545Z,12.07
2022-09-14T05:59:35.438Z,12.52
2022-09-14T06:19:35.463Z,12.74
2022-09-14T06:39:35.371Z,13.4
2022-09-14T06:59:35.382Z,14.36
2022-09-14T07:19:35.294Z,16.2
2022-09-14T07:39:35.172Z,17.39
2022-09-14T07:59:36.740Z,18.28
2022-09-14T08:19:35.163Z,17.52
2022-09-14T08:39:35.032Z,17.41
2022-09-14T08:59:34.997Z,17.79
2022-09-14T09:19:34.926Z,17.97
2022-09-14T10:39:34.859Z,18.15
2022-09-14T10:59:34.797Z,18.55
2022-09-14T11:19:34.705Z,19.08
2022-09-14T11:39:34.712Z,19.24
2022-09-14T11:59:41.624Z,19.84
2022-09-14T12:19:34.534Z,20.22
2022-09-14T12:39:34.486Z,19.55
2022-09-14T12:59:34.398Z,19.52
2022-09-14T13:39:34.325Z,19.09
2022-09-14T13:59:34.246Z,19.13
2022-09-14T14:19:34.357Z,18.9
2022-09-14T14:39:34.188Z,18.27
2022-09-14T14:59:34.228Z,18.1
2022-09-14T15:19:48.066Z,17.97
2022-09-14T15:39:34.046Z,17.73
2022-09-14T15:59:33.972Z,17.6
2022-09-14T16:19:40.933Z,17.45
2022-09-14T16:39:33.902Z,17.02
2022-09-14T16:59:33.830Z,16.62
2022-09-14T17:19:43.622Z,16.42
2022-09-14T17:39:40.757Z,16.08
2022-09-14T17:59:33.715Z,15.9
2022-09-14T18:19:33.640Z,15.81
2022-09-14T18:39:33.725Z,15.59
2022-09-14T18:59:33.586Z,15.32
2022-09-14T19:19:43.552Z,15.31
2022-09-14T19:39:33.634Z,15.19
2022-09-14T19:59:33.432Z,15.05
2022-09-14T20:19:33.463Z,15.09
2022-09-14T20:39:33.319Z,14.89
2022-09-14T20:59:33.375Z,14.76
2022-09-14T21:19:33.222Z,14.66
2022-09-14T21:59:33.251Z,14.35
2022-09-14T22:19:33.098Z,14.06
2022-09-14T22:39:33.075Z,13.95
2022-09-14T22:59:33.375Z,13.83
2022-09-14T23:19:32.954Z,13.69
2022-09-14T23:39:32.919Z,13.62
2022-09-14T23:59:32.868Z,13.57
